VA60 weather

Flying Horse Farm Balloonport
Unison, Virginia, United States

Public forecast

Using degrees Fahrenheit for public forecast. Weather courtesy of forecast.io.

Closest aviation weather report (METAR) to Flying Horse Farm Balloonport

Closest report is Leesburg Executive Airport, 10.4 nm (19.2 km) E. Retrieved 2020/05/31 21:55 UTC (20 minutes ago):

KJYO 312155Z AUTO 35010G17KT 10SM SCT085 22/06 A3011 RMK AO2

Closest aviation forecast (TAF) to Flying Horse Farm Balloonport

Closest forecast is Washington Dulles International Airport, 16.3 nm (30.2 km) ESE. Retrieved 2020/05/31 18:27 UTC (4 hours ago):

TAF KIAD 311725Z 3118/0124 33011G17KT P6SM SCT050 FM010000 33008KT P6SM FEW060 FM010600 VRB03KT P6SM FEW250 FM011300 31007KT P6SM FEW200